sensor_id;sensor_type;location;lat;lon;timestamp;P1;durP1;ratioP1;P2;durP2;ratioP2
36315;SDS011;22343;50.820;2.666;2023-05-07T00:02:00;11.85;;;6.80;;
36315;SDS011;22343;50.820;2.666;2023-05-07T00:04:45;12.30;;;7.13;;
36315;SDS011;22343;50.820;2.666;2023-05-07T00:07:30;8.70;;;6.65;;
36315;SDS011;22343;50.820;2.666;2023-05-07T00:10:16;11.00;;;6.88;;
36315;SDS011;22343;50.820;2.666;2023-05-07T00:13:02;10.07;;;7.10;;
36315;SDS011;22343;50.820;2.666;2023-05-07T00:15:48;11.75;;;7.00;;
36315;SDS011;22343;50.820;2.666;2023-05-07T00:18:33;9.05;;;7.15;;
36315;SDS011;22343;50.820;2.666;2023-05-07T00:21:18;11.85;;;6.97;;
36315;SDS011;22343;50.820;2.666;2023-05-07T00:24:04;9.73;;;6.97;;
36315;SDS011;22343;50.820;2.666;2023-05-07T00:26:50;10.05;;;6.78;;
36315;SDS011;22343;50.820;2.666;2023-05-07T00:29:36;10.98;;;7.30;;
36315;SDS011;22343;50.820;2.666;2023-05-07T00:32:22;9.45;;;6.53;;
36315;SDS011;22343;50.820;2.666;2023-05-07T00:35:07;9.10;;;6.90;;
36315;SDS011;22343;50.820;2.666;2023-05-07T00:37:53;12.45;;;6.63;;
36315;SDS011;22343;50.820;2.666;2023-05-07T00:40:38;9.35;;;6.78;;
36315;SDS011;22343;50.820;2.666;2023-05-07T00:43:24;13.57;;;6.95;;
36315;SDS011;22343;50.820;2.666;2023-05-07T00:46:08;11.18;;;6.60;;
36315;SDS011;22343;50.820;2.666;2023-05-07T00:48:55;11.77;;;6.93;;
36315;SDS011;22343;50.820;2.666;2023-05-07T00:51:41;11.27;;;7.20;;
36315;SDS011;22343;50.820;2.666;2023-05-07T00:54:27;13.02;;;6.85;;
36315;SDS011;22343;50.820;2.666;2023-05-07T00:57:11;10.82;;;6.85;;
36315;SDS011;22343;50.820;2.666;2023-05-07T00:59:57;11.38;;;6.30;;
36315;SDS011;22343;50.820;2.666;2023-05-07T01:02:42;10.48;;;7.00;;
36315;SDS011;22343;50.820;2.666;2023-05-07T01:05:28;10.77;;;6.97;;
36315;SDS011;22343;50.820;2.666;2023-05-07T01:08:14;11.52;;;6.35;;
36315;SDS011;22343;50.820;2.666;2023-05-07T01:11:00;13.50;;;6.60;;
36315;SDS011;22343;50.820;2.666;2023-05-07T01:13:45;9.73;;;6.28;;
36315;SDS011;22343;50.820;2.666;2023-05-07T01:16:30;10.48;;;6.78;;
36315;SDS011;22343;50.820;2.666;2023-05-07T01:19:19;10.98;;;6.88;;
36315;SDS011;22343;50.820;2.666;2023-05-07T01:22:07;12.52;;;6.47;;
36315;SDS011;22343;50.820;2.666;2023-05-07T01:24:52;13.95;;;7.20;;
36315;SDS011;22343;50.820;2.666;2023-05-07T01:27:39;10.98;;;6.80;;
36315;SDS011;22343;50.820;2.666;2023-05-07T01:30:25;11.05;;;6.47;;
36315;SDS011;22343;50.820;2.666;2023-05-07T01:33:11;11.02;;;6.47;;
36315;SDS011;22343;50.820;2.666;2023-05-07T01:35:59;14.65;;;7.10;;
36315;SDS011;22343;50.820;2.666;2023-05-07T01:38:48;15.35;;;6.93;;
36315;SDS011;22343;50.820;2.666;2023-05-07T01:41:33;14.00;;;7.47;;
36315;SDS011;22343;50.820;2.666;2023-05-07T01:44:18;12.77;;;7.20;;
36315;SDS011;22343;50.820;2.666;2023-05-07T01:47:04;15.80;;;7.35;;
36315;SDS011;22343;50.820;2.666;2023-05-07T01:49:50;13.32;;;7.88;;
36315;SDS011;22343;50.820;2.666;2023-05-07T01:52:36;12.85;;;7.35;;
36315;SDS011;22343;50.820;2.666;2023-05-07T01:55:23;12.15;;;7.10;;
36315;SDS011;22343;50.820;2.666;2023-05-07T01:58:09;11.55;;;7.38;;
36315;SDS011;22343;50.820;2.666;2023-05-07T02:00:56;13.13;;;7.18;;
36315;SDS011;22343;50.820;2.666;2023-05-07T02:03:41;12.23;;;7.13;;
36315;SDS011;22343;50.820;2.666;2023-05-07T02:06:26;12.70;;;7.25;;
36315;SDS011;22343;50.820;2.666;2023-05-07T02:09:11;13.27;;;7.25;;
36315;SDS011;22343;50.820;2.666;2023-05-07T02:11:56;14.63;;;7.30;;
36315;SDS011;22343;50.820;2.666;2023-05-07T02:14:42;12.75;;;7.20;;
36315;SDS011;22343;50.820;2.666;2023-05-07T02:17:26;11.50;;;7.28;;
36315;SDS011;22343;50.820;2.666;2023-05-07T02:20:12;9.95;;;7.30;;
36315;SDS011;22343;50.820;2.666;2023-05-07T02:22:58;11.43;;;7.40;;
36315;SDS011;22343;50.820;2.666;2023-05-07T02:25:43;10.15;;;6.70;;
36315;SDS011;22343;50.820;2.666;2023-05-07T02:28:29;12.13;;;6.85;;
36315;SDS011;22343;50.820;2.666;2023-05-07T02:31:13;9.98;;;6.53;;
36315;SDS011;22343;50.820;2.666;2023-05-07T02:33:59;12.30;;;6.90;;
36315;SDS011;22343;50.820;2.666;2023-05-07T02:36:45;13.02;;;7.25;;
36315;SDS011;22343;50.820;2.666;2023-05-07T02:39:30;7.97;;;6.53;;
36315;SDS011;22343;50.820;2.666;2023-05-07T02:42:16;9.55;;;7.00;;
36315;SDS011;22343;50.820;2.666;2023-05-07T02:45:00;12.50;;;7.07;;
36315;SDS011;22343;50.820;2.666;2023-05-07T02:47:46;11.32;;;6.95;;
36315;SDS011;22343;50.820;2.666;2023-05-07T02:50:30;11.93;;;7.00;;
36315;SDS011;22343;50.820;2.666;2023-05-07T02:53:17;12.07;;;6.90;;
36315;SDS011;22343;50.820;2.666;2023-05-07T02:56:02;10.63;;;6.43;;
36315;SDS011;22343;50.820;2.666;2023-05-07T02:58:46;12.35;;;7.65;;
36315;SDS011;22343;50.820;2.666;2023-05-07T03:01:32;10.43;;;7.03;;
36315;SDS011;22343;50.820;2.666;2023-05-07T03:04:17;11.18;;;6.88;;
36315;SDS011;22343;50.820;2.666;2023-05-07T03:07:03;11.57;;;7.40;;
36315;SDS011;22343;50.820;2.666;2023-05-07T03:09:49;11.38;;;7.35;;
36315;SDS011;22343;50.820;2.666;2023-05-07T03:12:34;10.68;;;6.78;;
36315;SDS011;22343;50.820;2.666;2023-05-07T03:15:20;12.52;;;7.25;;
36315;SDS011;22343;50.820;2.666;2023-05-07T03:18:05;11.68;;;7.15;;
36315;SDS011;22343;50.820;2.666;2023-05-07T03:20:51;10.45;;;7.28;;
36315;SDS011;22343;50.820;2.666;2023-05-07T03:23:36;12.32;;;7.05;;
36315;SDS011;22343;50.820;2.666;2023-05-07T03:26:22;10.05;;;7.30;;
36315;SDS011;22343;50.820;2.666;2023-05-07T03:29:07;13.00;;;7.30;;
36315;SDS011;22343;50.820;2.666;2023-05-07T03:31:53;10.52;;;7.28;;
36315;SDS011;22343;50.820;2.666;2023-05-07T03:34:39;11.35;;;7.38;;
36315;SDS011;22343;50.820;2.666;2023-05-07T03:37:24;10.65;;;7.60;;
36315;SDS011;22343;50.820;2.666;2023-05-07T03:40:10;9.73;;;7.55;;
36315;SDS011;22343;50.820;2.666;2023-05-07T03:42:57;10.75;;;7.78;;
36315;SDS011;22343;50.820;2.666;2023-05-07T03:45:42;14.30;;;8.02;;
36315;SDS011;22343;50.820;2.666;2023-05-07T03:48:27;10.88;;;7.10;;
36315;SDS011;22343;50.820;2.666;2023-05-07T03:51:13;10.73;;;8.05;;
36315;SDS011;22343;50.820;2.666;2023-05-07T03:53:59;10.75;;;8.00;;
36315;SDS011;22343;50.820;2.666;2023-05-07T03:56:44;13.57;;;8.18;;
36315;SDS011;22343;50.820;2.666;2023-05-07T03:59:31;10.73;;;8.32;;
36315;SDS011;22343;50.820;2.666;2023-05-07T04:02:15;11.40;;;8.07;;
36315;SDS011;22343;50.820;2.666;2023-05-07T04:04:59;11.85;;;7.78;;
36315;SDS011;22343;50.820;2.666;2023-05-07T04:07:46;11.32;;;8.10;;
36315;SDS011;22343;50.820;2.666;2023-05-07T04:10:32;14.18;;;8.57;;
36315;SDS011;22343;50.820;2.666;2023-05-07T04:13:17;13.02;;;7.97;;
36315;SDS011;22343;50.820;2.666;2023-05-07T04:16:03;10.50;;;7.88;;
36315;SDS011;22343;50.820;2.666;2023-05-07T04:18:50;11.18;;;7.78;;
36315;SDS011;22343;50.820;2.666;2023-05-07T04:21:35;12.05;;;8.40;;
36315;SDS011;22343;50.820;2.666;2023-05-07T04:24:19;11.43;;;8.20;;
36315;SDS011;22343;50.820;2.666;2023-05-07T04:27:05;11.35;;;7.88;;
36315;SDS011;22343;50.820;2.666;2023-05-07T04:29:51;11.60;;;8.10;;
36315;SDS011;22343;50.820;2.666;2023-05-07T04:32:40;13.00;;;7.70;;
36315;SDS011;22343;50.820;2.666;2023-05-07T04:35:25;11.95;;;8.05;;
36315;SDS011;22343;50.820;2.666;2023-05-07T04:38:11;13.25;;;7.90;;
36315;SDS011;22343;50.820;2.666;2023-05-07T04:40:56;13.15;;;8.02;;
36315;SDS011;22343;50.820;2.666;2023-05-07T04:43:42;10.32;;;7.82;;
36315;SDS011;22343;50.820;2.666;2023-05-07T04:46:28;10.73;;;7.53;;
36315;SDS011;22343;50.820;2.666;2023-05-07T04:49:13;10.85;;;7.70;;
36315;SDS011;22343;50.820;2.666;2023-05-07T04:51:58;10.95;;;7.22;;
36315;SDS011;22343;50.820;2.666;2023-05-07T04:54:44;10.52;;;7.47;;
36315;SDS011;22343;50.820;2.666;2023-05-07T04:57:29;11.27;;;7.85;;
36315;SDS011;22343;50.820;2.666;2023-05-07T05:00:15;12.10;;;7.32;;
36315;SDS011;22343;50.820;2.666;2023-05-07T05:03:01;10.88;;;7.50;;
36315;SDS011;22343;50.820;2.666;2023-05-07T05:05:48;10.25;;;7.38;;
36315;SDS011;22343;50.820;2.666;2023-05-07T05:08:34;10.93;;;7.15;;
36315;SDS011;22343;50.820;2.666;2023-05-07T05:11:19;10.38;;;7.82;;
36315;SDS011;22343;50.820;2.666;2023-05-07T05:14:05;11.38;;;7.85;;
36315;SDS011;22343;50.820;2.666;2023-05-07T05:16:50;9.20;;;7.43;;
36315;SDS011;22343;50.820;2.666;2023-05-07T05:19:36;11.02;;;7.25;;
36315;SDS011;22343;50.820;2.666;2023-05-07T05:22:21;12.68;;;7.63;;
36315;SDS011;22343;50.820;2.666;2023-05-07T05:25:06;10.50;;;7.25;;
36315;SDS011;22343;50.820;2.666;2023-05-07T05:27:52;8.27;;;6.55;;
36315;SDS011;22343;50.820;2.666;2023-05-07T05:30:37;10.48;;;7.13;;
36315;SDS011;22343;50.820;2.666;2023-05-07T05:33:24;9.85;;;7.50;;
36315;SDS011;22343;50.820;2.666;2023-05-07T05:36:12;9.63;;;6.93;;
36315;SDS011;22343;50.820;2.666;2023-05-07T05:38:58;10.43;;;7.07;;
36315;SDS011;22343;50.820;2.666;2023-05-07T05:41:42;7.78;;;6.60;;
36315;SDS011;22343;50.820;2.666;2023-05-07T05:44:28;9.15;;;6.55;;
36315;SDS011;22343;50.820;2.666;2023-05-07T05:47:13;8.90;;;6.50;;
36315;SDS011;22343;50.820;2.666;2023-05-07T05:49:59;8.55;;;6.40;;
36315;SDS011;22343;50.820;2.666;2023-05-07T05:52:44;10.30;;;6.18;;
36315;SDS011;22343;50.820;2.666;2023-05-07T05:55:30;7.90;;;6.18;;
36315;SDS011;22343;50.820;2.666;2023-05-07T05:58:17;8.63;;;6.53;;
36315;SDS011;22343;50.820;2.666;2023-05-07T06:01:03;11.48;;;6.32;;
36315;SDS011;22343;50.820;2.666;2023-05-07T06:03:49;9.25;;;6.13;;
36315;SDS011;22343;50.820;2.666;2023-05-07T06:06:35;9.63;;;6.35;;
36315;SDS011;22343;50.820;2.666;2023-05-07T06:09:20;8.13;;;6.38;;
36315;SDS011;22343;50.820;2.666;2023-05-07T06:12:05;11.15;;;5.97;;
36315;SDS011;22343;50.820;2.666;2023-05-07T06:14:49;8.25;;;5.68;;
36315;SDS011;22343;50.820;2.666;2023-05-07T06:17:35;8.30;;;5.50;;
36315;SDS011;22343;50.820;2.666;2023-05-07T06:20:19;8.88;;;5.82;;
36315;SDS011;22343;50.820;2.666;2023-05-07T06:23:05;7.60;;;5.97;;
36315;SDS011;22343;50.820;2.666;2023-05-07T06:25:51;7.90;;;5.80;;
36315;SDS011;22343;50.820;2.666;2023-05-07T06:28:36;11.38;;;6.38;;
36315;SDS011;22343;50.820;2.666;2023-05-07T06:31:22;8.02;;;6.30;;
36315;SDS011;22343;50.820;2.666;2023-05-07T06:34:07;7.60;;;6.13;;
36315;SDS011;22343;50.820;2.666;2023-05-07T06:36:53;7.93;;;5.88;;
36315;SDS011;22343;50.820;2.666;2023-05-07T06:39:39;6.68;;;5.65;;
36315;SDS011;22343;50.820;2.666;2023-05-07T06:42:24;9.07;;;6.22;;
36315;SDS011;22343;50.820;2.666;2023-05-07T06:45:10;8.70;;;5.80;;
36315;SDS011;22343;50.820;2.666;2023-05-07T06:47:57;10.07;;;6.28;;
36315;SDS011;22343;50.820;2.666;2023-05-07T06:50:43;12.32;;;6.70;;
36315;SDS011;22343;50.820;2.666;2023-05-07T06:53:29;11.57;;;7.80;;
36315;SDS011;22343;50.820;2.666;2023-05-07T06:56:17;13.25;;;9.25;;
36315;SDS011;22343;50.820;2.666;2023-05-07T06:59:03;12.48;;;9.65;;
36315;SDS011;22343;50.820;2.666;2023-05-07T07:01:49;14.30;;;10.10;;
36315;SDS011;22343;50.820;2.666;2023-05-07T07:04:34;12.20;;;10.48;;
36315;SDS011;22343;50.820;2.666;2023-05-07T07:07:20;13.15;;;10.05;;
36315;SDS011;22343;50.820;2.666;2023-05-07T07:10:06;11.30;;;9.15;;
36315;SDS011;22343;50.820;2.666;2023-05-07T07:12:51;13.80;;;9.40;;
36315;SDS011;22343;50.820;2.666;2023-05-07T07:15:39;12.85;;;9.45;;
36315;SDS011;22343;50.820;2.666;2023-05-07T07:18:25;12.82;;;10.15;;
36315;SDS011;22343;50.820;2.666;2023-05-07T07:21:11;12.82;;;9.90;;
36315;SDS011;22343;50.820;2.666;2023-05-07T07:23:56;11.70;;;8.88;;
36315;SDS011;22343;50.820;2.666;2023-05-07T07:26:41;12.73;;;9.05;;
36315;SDS011;22343;50.820;2.666;2023-05-07T07:29:28;11.40;;;8.10;;
36315;SDS011;22343;50.820;2.666;2023-05-07T07:32:14;9.25;;;7.35;;
36315;SDS011;22343;50.820;2.666;2023-05-07T07:34:59;10.05;;;6.28;;
36315;SDS011;22343;50.820;2.666;2023-05-07T07:37:45;10.48;;;6.00;;
36315;SDS011;22343;50.820;2.666;2023-05-07T07:40:31;10.32;;;6.07;;
36315;SDS011;22343;50.820;2.666;2023-05-07T07:43:17;9.60;;;7.15;;
36315;SDS011;22343;50.820;2.666;2023-05-07T07:46:03;11.57;;;7.50;;
36315;SDS011;22343;50.820;2.666;2023-05-07T07:48:48;11.63;;;8.00;;
36315;SDS011;22343;50.820;2.666;2023-05-07T07:51:33;9.30;;;7.03;;
36315;SDS011;22343;50.820;2.666;2023-05-07T07:54:18;9.90;;;6.60;;
36315;SDS011;22343;50.820;2.666;2023-05-07T07:57:04;9.10;;;6.32;;
36315;SDS011;22343;50.820;2.666;2023-05-07T07:59:50;9.57;;;6.70;;
36315;SDS011;22343;50.820;2.666;2023-05-07T08:02:37;7.25;;;6.22;;
36315;SDS011;22343;50.820;2.666;2023-05-07T08:05:22;9.50;;;6.15;;
36315;SDS011;22343;50.820;2.666;2023-05-07T08:08:11;9.15;;;6.45;;
36315;SDS011;22343;50.820;2.666;2023-05-07T08:10:56;7.10;;;5.80;;
36315;SDS011;22343;50.820;2.666;2023-05-07T08:13:42;8.82;;;6.80;;
36315;SDS011;22343;50.820;2.666;2023-05-07T08:16:28;10.68;;;6.60;;
36315;SDS011;22343;50.820;2.666;2023-05-07T08:19:13;8.65;;;6.00;;
36315;SDS011;22343;50.820;2.666;2023-05-07T08:21:57;8.27;;;6.20;;
36315;SDS011;22343;50.820;2.666;2023-05-07T08:24:44;8.18;;;6.72;;
36315;SDS011;22343;50.820;2.666;2023-05-07T08:27:30;8.30;;;6.53;;
36315;SDS011;22343;50.820;2.666;2023-05-07T08:30:16;9.57;;;6.55;;
36315;SDS011;22343;50.820;2.666;2023-05-07T08:33:03;7.75;;;5.80;;
36315;SDS011;22343;50.820;2.666;2023-05-07T08:35:47;8.70;;;6.05;;
36315;SDS011;22343;50.820;2.666;2023-05-07T08:38:33;10.43;;;6.15;;
36315;SDS011;22343;50.820;2.666;2023-05-07T08:41:17;9.32;;;6.72;;
36315;SDS011;22343;50.820;2.666;2023-05-07T08:44:06;7.60;;;6.07;;
36315;SDS011;22343;50.820;2.666;2023-05-07T08:46:57;7.07;;;5.93;;
36315;SDS011;22343;50.820;2.666;2023-05-07T08:49:45;9.93;;;6.50;;
36315;SDS011;22343;50.820;2.666;2023-05-07T08:52:29;9.13;;;6.32;;
36315;SDS011;22343;50.820;2.666;2023-05-07T08:55:15;10.88;;;6.45;;
36315;SDS011;22343;50.820;2.666;2023-05-07T08:58:02;9.40;;;6.35;;
36315;SDS011;22343;50.820;2.666;2023-05-07T09:00:47;10.40;;;6.50;;
36315;SDS011;22343;50.820;2.666;2023-05-07T09:03:32;11.50;;;6.95;;
36315;SDS011;22343;50.820;2.666;2023-05-07T09:06:18;11.02;;;7.05;;
36315;SDS011;22343;50.820;2.666;2023-05-07T09:09:02;12.35;;;7.13;;
36315;SDS011;22343;50.820;2.666;2023-05-07T09:11:51;11.90;;;7.10;;
36315;SDS011;22343;50.820;2.666;2023-05-07T09:14:42;11.68;;;9.10;;
36315;SDS011;22343;50.820;2.666;2023-05-07T09:17:28;11.63;;;9.10;;
36315;SDS011;22343;50.820;2.666;2023-05-07T09:20:12;14.57;;;9.23;;
36315;SDS011;22343;50.820;2.666;2023-05-07T09:22:58;10.10;;;8.85;;
36315;SDS011;22343;50.820;2.666;2023-05-07T09:25:43;13.60;;;10.35;;
36315;SDS011;22343;50.820;2.666;2023-05-07T09:28:28;11.43;;;9.90;;
36315;SDS011;22343;50.820;2.666;2023-05-07T09:31:12;15.80;;;10.60;;
36315;SDS011;22343;50.820;2.666;2023-05-07T09:33:58;13.68;;;10.57;;
36315;SDS011;22343;50.820;2.666;2023-05-07T09:36:45;13.75;;;10.50;;
36315;SDS011;22343;50.820;2.666;2023-05-07T09:39:41;14.77;;;10.88;;
36315;SDS011;22343;50.820;2.666;2023-05-07T09:42:31;12.75;;;10.25;;
36315;SDS011;22343;50.820;2.666;2023-05-07T09:45:26;14.27;;;10.93;;
36315;SDS011;22343;50.820;2.666;2023-05-07T09:48:13;15.77;;;11.07;;
36315;SDS011;22343;50.820;2.666;2023-05-07T09:51:02;14.35;;;11.90;;
36315;SDS011;22343;50.820;2.666;2023-05-07T09:53:48;14.45;;;11.25;;
36315;SDS011;22343;50.820;2.666;2023-05-07T09:56:36;14.25;;;11.93;;
36315;SDS011;22343;50.820;2.666;2023-05-07T09:59:22;13.70;;;11.02;;
36315;SDS011;22343;50.820;2.666;2023-05-07T10:02:09;18.40;;;13.07;;
36315;SDS011;22343;50.820;2.666;2023-05-07T10:04:55;15.60;;;12.85;;
36315;SDS011;22343;50.820;2.666;2023-05-07T10:07:41;28.58;;;23.50;;
36315;SDS011;22343;50.820;2.666;2023-05-07T10:10:27;27.50;;;21.95;;
36315;SDS011;22343;50.820;2.666;2023-05-07T10:13:13;25.55;;;20.50;;
36315;SDS011;22343;50.820;2.666;2023-05-07T10:16:00;14.43;;;12.07;;
36315;SDS011;22343;50.820;2.666;2023-05-07T10:18:46;14.40;;;11.90;;
36315;SDS011;22343;50.820;2.666;2023-05-07T10:21:37;14.15;;;10.50;;
36315;SDS011;22343;50.820;2.666;2023-05-07T10:24:25;14.30;;;10.65;;
36315;SDS011;22343;50.820;2.666;2023-05-07T10:27:11;17.38;;;13.23;;
36315;SDS011;22343;50.820;2.666;2023-05-07T10:33:13;12.55;;;10.07;;
36315;SDS011;22343;50.820;2.666;2023-05-07T10:36:01;12.10;;;10.00;;
36315;SDS011;22343;50.820;2.666;2023-05-07T10:38:49;13.43;;;10.23;;
36315;SDS011;22343;50.820;2.666;2023-05-07T10:41:35;24.73;;;15.65;;
36315;SDS011;22343;50.820;2.666;2023-05-07T10:47:25;14.18;;;10.38;;
36315;SDS011;22343;50.820;2.666;2023-05-07T11:02:17;10.63;;;9.05;;
36315;SDS011;22343;50.820;2.666;2023-05-07T11:08:06;12.60;;;8.93;;
36315;SDS011;22343;50.820;2.666;2023-05-07T11:10:51;11.98;;;9.35;;
36315;SDS011;22343;50.820;2.666;2023-05-07T11:13:42;13.02;;;9.95;;
36315;SDS011;22343;50.820;2.666;2023-05-07T11:16:32;12.32;;;10.43;;
36315;SDS011;22343;50.820;2.666;2023-05-07T11:19:40;12.05;;;10.80;;
36315;SDS011;22343;50.820;2.666;2023-05-07T11:22:54;15.88;;;13.00;;
36315;SDS011;22343;50.820;2.666;2023-05-07T11:25:42;16.98;;;14.20;;
36315;SDS011;22343;50.820;2.666;2023-05-07T11:28:31;16.23;;;13.68;;
36315;SDS011;22343;50.820;2.666;2023-05-07T11:31:24;18.45;;;14.27;;
36315;SDS011;22343;50.820;2.666;2023-05-07T11:34:11;18.20;;;15.02;;
36315;SDS011;22343;50.820;2.666;2023-05-07T11:36:57;22.42;;;14.77;;
36315;SDS011;22343;50.820;2.666;2023-05-07T11:39:43;18.13;;;14.77;;
36315;SDS011;22343;50.820;2.666;2023-05-07T11:42:30;17.50;;;14.32;;
36315;SDS011;22343;50.820;2.666;2023-05-07T11:45:23;15.98;;;12.43;;
36315;SDS011;22343;50.820;2.666;2023-05-07T11:48:12;13.45;;;11.68;;
36315;SDS011;22343;50.820;2.666;2023-05-07T11:54:04;16.83;;;12.38;;
36315;SDS011;22343;50.820;2.666;2023-05-07T11:56:55;14.77;;;11.40;;
36315;SDS011;22343;50.820;2.666;2023-05-07T11:59:39;14.20;;;12.40;;
36315;SDS011;22343;50.820;2.666;2023-05-07T12:02:25;14.18;;;11.88;;
36315;SDS011;22343;50.820;2.666;2023-05-07T12:05:11;12.05;;;10.75;;
36315;SDS011;22343;50.820;2.666;2023-05-07T12:07:57;12.20;;;9.88;;
36315;SDS011;22343;50.820;2.666;2023-05-07T12:10:42;15.60;;;10.73;;
36315;SDS011;22343;50.820;2.666;2023-05-07T12:13:28;13.77;;;10.95;;
36315;SDS011;22343;50.820;2.666;2023-05-07T12:16:14;14.73;;;10.82;;
36315;SDS011;22343;50.820;2.666;2023-05-07T12:18:59;15.40;;;10.98;;
36315;SDS011;22343;50.820;2.666;2023-05-07T12:21:45;14.98;;;10.48;;
36315;SDS011;22343;50.820;2.666;2023-05-07T12:25:16;14.82;;;10.77;;
36315;SDS011;22343;50.820;2.666;2023-05-07T12:27:43;10.45;;;9.20;;
36315;SDS011;22343;50.820;2.666;2023-05-07T12:30:29;11.50;;;9.55;;
36315;SDS011;22343;50.820;2.666;2023-05-07T12:33:22;11.82;;;9.30;;
36315;SDS011;22343;50.820;2.666;2023-05-07T12:36:08;12.05;;;9.10;;
36315;SDS011;22343;50.820;2.666;2023-05-07T12:38:54;12.77;;;9.48;;
36315;SDS011;22343;50.820;2.666;2023-05-07T12:41:58;14.35;;;10.50;;
36315;SDS011;22343;50.820;2.666;2023-05-07T12:44:45;12.48;;;9.77;;
36315;SDS011;22343;50.820;2.666;2023-05-07T12:47:31;13.82;;;10.07;;
36315;SDS011;22343;50.820;2.666;2023-05-07T12:50:17;11.02;;;9.07;;
36315;SDS011;22343;50.820;2.666;2023-05-07T12:53:05;10.98;;;8.23;;
36315;SDS011;22343;50.820;2.666;2023-05-07T12:55:52;10.77;;;8.35;;
36315;SDS011;22343;50.820;2.666;2023-05-07T12:58:40;12.40;;;9.13;;
36315;SDS011;22343;50.820;2.666;2023-05-07T13:01:28;11.15;;;9.02;;
36315;SDS011;22343;50.820;2.666;2023-05-07T13:04:13;11.57;;;8.63;;
36315;SDS011;22343;50.820;2.666;2023-05-07T13:06:59;10.57;;;9.32;;
36315;SDS011;22343;50.820;2.666;2023-05-07T13:09:44;10.65;;;8.93;;
36315;SDS011;22343;50.820;2.666;2023-05-07T13:12:29;11.45;;;8.50;;
36315;SDS011;22343;50.820;2.666;2023-05-07T13:15:13;10.63;;;8.55;;
36315;SDS011;22343;50.820;2.666;2023-05-07T13:17:57;9.85;;;8.65;;
36315;SDS011;22343;50.820;2.666;2023-05-07T13:20:42;9.00;;;7.95;;
36315;SDS011;22343;50.820;2.666;2023-05-07T13:23:26;9.05;;;7.75;;
36315;SDS011;22343;50.820;2.666;2023-05-07T13:26:11;11.85;;;8.52;;
36315;SDS011;22343;50.820;2.666;2023-05-07T13:28:57;8.95;;;8.05;;
36315;SDS011;22343;50.820;2.666;2023-05-07T13:31:44;9.60;;;8.02;;
36315;SDS011;22343;50.820;2.666;2023-05-07T13:34:30;9.52;;;7.95;;
36315;SDS011;22343;50.820;2.666;2023-05-07T13:37:15;9.38;;;8.32;;
36315;SDS011;22343;50.820;2.666;2023-05-07T13:40:01;9.45;;;8.30;;
36315;SDS011;22343;50.820;2.666;2023-05-07T13:42:47;10.40;;;8.25;;
36315;SDS011;22343;50.820;2.666;2023-05-07T13:45:33;9.82;;;8.70;;
36315;SDS011;22343;50.820;2.666;2023-05-07T13:48:19;9.23;;;8.02;;
36315;SDS011;22343;50.820;2.666;2023-05-07T13:51:04;9.27;;;8.30;;
36315;SDS011;22343;50.820;2.666;2023-05-07T13:53:50;10.88;;;9.40;;
36315;SDS011;22343;50.820;2.666;2023-05-07T13:56:35;10.75;;;9.75;;
36315;SDS011;22343;50.820;2.666;2023-05-07T13:59:23;12.90;;;11.48;;
36315;SDS011;22343;50.820;2.666;2023-05-07T14:02:09;14.18;;;11.90;;
36315;SDS011;22343;50.820;2.666;2023-05-07T14:04:53;13.13;;;11.88;;
36315;SDS011;22343;50.820;2.666;2023-05-07T14:07:39;13.30;;;11.93;;
36315;SDS011;22343;50.820;2.666;2023-05-07T14:10:24;12.63;;;10.95;;
36315;SDS011;22343;50.820;2.666;2023-05-07T14:13:09;11.48;;;10.10;;
36315;SDS011;22343;50.820;2.666;2023-05-07T14:15:56;12.88;;;10.85;;
36315;SDS011;22343;50.820;2.666;2023-05-07T14:18:45;12.98;;;11.70;;
36315;SDS011;22343;50.820;2.666;2023-05-07T14:21:30;12.38;;;10.90;;
36315;SDS011;22343;50.820;2.666;2023-05-07T14:24:18;14.90;;;12.85;;
36315;SDS011;22343;50.820;2.666;2023-05-07T14:27:02;13.70;;;12.32;;
36315;SDS011;22343;50.820;2.666;2023-05-07T14:29:47;14.57;;;13.02;;
36315;SDS011;22343;50.820;2.666;2023-05-07T14:32:35;14.27;;;12.77;;
36315;SDS011;22343;50.820;2.666;2023-05-07T14:35:21;14.63;;;12.52;;
36315;SDS011;22343;50.820;2.666;2023-05-07T14:38:06;17.35;;;14.07;;
36315;SDS011;22343;50.820;2.666;2023-05-07T14:40:50;17.08;;;14.82;;
36315;SDS011;22343;50.820;2.666;2023-05-07T14:43:34;16.83;;;14.27;;
36315;SDS011;22343;50.820;2.666;2023-05-07T14:46:19;17.75;;;15.85;;
36315;SDS011;22343;50.820;2.666;2023-05-07T14:49:05;19.60;;;16.30;;
36315;SDS011;22343;50.820;2.666;2023-05-07T14:51:51;18.77;;;16.65;;
36315;SDS011;22343;50.820;2.666;2023-05-07T14:54:37;18.48;;;15.90;;
36315;SDS011;22343;50.820;2.666;2023-05-07T14:57:21;20.40;;;16.90;;
36315;SDS011;22343;50.820;2.666;2023-05-07T15:00:08;18.92;;;16.80;;
36315;SDS011;22343;50.820;2.666;2023-05-07T15:02:56;18.90;;;15.65;;
36315;SDS011;22343;50.820;2.666;2023-05-07T15:06:01;19.73;;;17.48;;
36315;SDS011;22343;50.820;2.666;2023-05-07T15:08:49;24.40;;;21.90;;
36315;SDS011;22343;50.820;2.666;2023-05-07T15:11:33;27.80;;;24.80;;
36315;SDS011;22343;50.820;2.666;2023-05-07T15:14:18;30.13;;;26.90;;
36315;SDS011;22343;50.820;2.666;2023-05-07T15:17:02;30.63;;;27.35;;
36315;SDS011;22343;50.820;2.666;2023-05-07T15:19:47;31.23;;;27.98;;
36315;SDS011;22343;50.820;2.666;2023-05-07T15:22:31;30.15;;;26.50;;
36315;SDS011;22343;50.820;2.666;2023-05-07T15:25:17;30.40;;;27.27;;
36315;SDS011;22343;50.820;2.666;2023-05-07T15:28:02;30.40;;;27.20;;
36315;SDS011;22343;50.820;2.666;2023-05-07T15:30:46;27.38;;;24.33;;
36315;SDS011;22343;50.820;2.666;2023-05-07T15:33:31;26.50;;;23.63;;
36315;SDS011;22343;50.820;2.666;2023-05-07T15:36:15;25.13;;;22.50;;
36315;SDS011;22343;50.820;2.666;2023-05-07T15:38:59;22.10;;;19.80;;
36315;SDS011;22343;50.820;2.666;2023-05-07T15:41:46;20.75;;;18.65;;
36315;SDS011;22343;50.820;2.666;2023-05-07T15:44:30;21.20;;;17.02;;
36315;SDS011;22343;50.820;2.666;2023-05-07T15:47:15;17.65;;;15.85;;
36315;SDS011;22343;50.820;2.666;2023-05-07T15:50:00;20.70;;;18.48;;
36315;SDS011;22343;50.820;2.666;2023-05-07T15:52:45;20.25;;;18.10;;
36315;SDS011;22343;50.820;2.666;2023-05-07T15:55:30;20.15;;;17.85;;
36315;SDS011;22343;50.820;2.666;2023-05-07T15:58:15;21.65;;;18.08;;
36315;SDS011;22343;50.820;2.666;2023-05-07T16:01:03;20.98;;;18.30;;
36315;SDS011;22343;50.820;2.666;2023-05-07T16:03:48;20.05;;;17.90;;
36315;SDS011;22343;50.820;2.666;2023-05-07T16:06:32;21.25;;;18.08;;
36315;SDS011;22343;50.820;2.666;2023-05-07T16:09:16;17.95;;;14.93;;
36315;SDS011;22343;50.820;2.666;2023-05-07T16:12:01;19.90;;;16.58;;
36315;SDS011;22343;50.820;2.666;2023-05-07T16:14:45;21.13;;;17.63;;
36315;SDS011;22343;50.820;2.666;2023-05-07T16:17:30;21.13;;;17.23;;
36315;SDS011;22343;50.820;2.666;2023-05-07T16:20:14;19.10;;;16.38;;
36315;SDS011;22343;50.820;2.666;2023-05-07T16:23:02;24.95;;;19.48;;
36315;SDS011;22343;50.820;2.666;2023-05-07T16:25:47;25.23;;;20.02;;
36315;SDS011;22343;50.820;2.666;2023-05-07T16:28:32;25.42;;;21.60;;
36315;SDS011;22343;50.820;2.666;2023-05-07T16:31:17;27.17;;;22.55;;
36315;SDS011;22343;50.820;2.666;2023-05-07T16:34:03;25.25;;;21.85;;
36315;SDS011;22343;50.820;2.666;2023-05-07T16:36:47;27.75;;;21.70;;
36315;SDS011;22343;50.820;2.666;2023-05-07T16:39:32;22.60;;;20.20;;
36315;SDS011;22343;50.820;2.666;2023-05-07T16:42:16;24.98;;;20.27;;
36315;SDS011;22343;50.820;2.666;2023-05-07T16:45:01;23.65;;;19.65;;
36315;SDS011;22343;50.820;2.666;2023-05-07T16:47:46;25.77;;;19.98;;
36315;SDS011;22343;50.820;2.666;2023-05-07T16:50:30;23.13;;;18.88;;